Time;durP1;ratioP1;P1;durP2;ratioP2;P2;SDS_P1;SDS_P2;PMS_P1;PMS_P2;Temp;Humidity;BMP_temperature;BMP_pressure;BME280_temperature;BME280_humidity;BME280_pressure;Samples;Min_cycle;Max_cycle;Signal;HPM_P1;HPM_P2
2023/12/05 00:00:35;;;;;;;13.35;6.97;;;;;;;;;;4983534;28;20107;-66
2023/12/05 00:03:01;;;;;;;18.45;10.43;;;;;;;;;;4983321;28;20022;-66
2023/12/05 00:05:26;;;;;;;16.20;6.78;;;;;;;;;;4986090;28;20025;-66
2023/12/05 00:07:52;;;;;;;6.75;3.25;;;;;;;;;;4986919;28;20512;-66
2023/12/05 00:10:17;;;;;;;14.75;7.00;;;;;;;;;;4989570;28;20073;-66
2023/12/05 00:12:42;;;;;;;8.43;5.23;;;;;;;;;;4988499;28;20033;-66
2023/12/05 00:15:08;;;;;;;19.35;8.85;;;;;;;;;;4989042;28;22405;-66
2023/12/05 00:17:33;;;;;;;15.77;8.15;;;;;;;;;;4985574;28;20030;-66
2023/12/05 00:19:58;;;;;;;14.93;7.57;;;;;;;;;;4986277;28;20048;-66
2023/12/05 00:22:25;;;;;;;16.73;5.47;;;;;;;;;;4986295;28;20029;-66
2023/12/05 00:24:50;;;;;;;21.55;9.60;;;;;;;;;;4986977;28;20285;-66
2023/12/05 00:27:16;;;;;;;10.38;5.80;;;;;;;;;;4984090;28;20038;-66
2023/12/05 00:29:41;;;;;;;10.50;6.67;;;;;;;;;;4988777;28;20763;-66
2023/12/05 00:32:06;;;;;;;12.37;7.23;;;;;;;;;;4987379;28;20380;-66
2023/12/05 00:34:31;;;;;;;11.60;5.57;;;;;;;;;;4988072;28;20265;-66
2023/12/05 00:36:56;;;;;;;9.50;5.57;;;;;;;;;;4989068;28;20053;-66
2023/12/05 00:39:22;;;;;;;18.02;7.15;;;;;;;;;;4986751;28;20114;-66
2023/12/05 00:41:47;;;;;;;11.03;4.83;;;;;;;;;;4982328;28;20026;-66
2023/12/05 00:44:12;;;;;;;17.05;9.38;;;;;;;;;;4987859;28;20332;-66
2023/12/05 00:46:37;;;;;;;17.27;7.93;;;;;;;;;;4984700;28;20031;-66
2023/12/05 00:49:03;;;;;;;13.60;4.57;;;;;;;;;;4989001;28;20445;-66
2023/12/05 00:51:28;;;;;;;12.57;6.13;;;;;;;;;;4987150;28;20500;-66
2023/12/05 00:53:53;;;;;;;8.32;5.30;;;;;;;;;;4986523;28;20572;-66
2023/12/05 00:56:20;;;;;;;13.38;8.10;;;;;;;;;;4985996;28;20046;-66
2023/12/05 00:58:45;;;;;;;11.98;6.85;;;;;;;;;;4985711;28;20429;-66
2023/12/05 01:01:10;;;;;;;10.70;6.13;;;;;;;;;;4985745;28;20030;-66
2023/12/05 01:03:35;;;;;;;20.25;9.98;;;;;;;;;;4986728;28;20261;-66
2023/12/05 01:06:01;;;;;;;7.07;3.17;;;;;;;;;;4987497;28;20531;-66
2023/12/05 01:08:26;;;;;;;14.07;6.33;;;;;;;;;;4987014;28;20270;-66
2023/12/05 01:10:51;;;;;;;13.90;6.20;;;;;;;;;;4987421;28;20826;-67
2023/12/05 01:13:16;;;;;;;16.20;5.93;;;;;;;;;;4983190;28;21803;-66
2023/12/05 01:15:41;;;;;;;15.15;8.57;;;;;;;;;;4986590;28;20278;-66
2023/12/05 01:18:06;;;;;;;18.50;9.35;;;;;;;;;;4986848;28;20021;-66
2023/12/05 01:20:32;;;;;;;7.03;4.72;;;;;;;;;;4978173;28;20492;-66
2023/12/05 01:22:57;;;;;;;9.13;5.25;;;;;;;;;;4988066;28;20107;-66
2023/12/05 01:25:22;;;;;;;19.13;10.15;;;;;;;;;;4985914;28;20022;-66
2023/12/05 01:27:47;;;;;;;13.13;5.20;;;;;;;;;;4981695;28;20074;-66
2023/12/05 01:30:13;;;;;;;16.08;6.47;;;;;;;;;;4987700;28;20245;-66
2023/12/05 01:32:38;;;;;;;19.80;8.70;;;;;;;;;;4982538;28;20387;-66
2023/12/05 01:35:03;;;;;;;16.13;6.22;;;;;;;;;;4988105;28;20114;-66
2023/12/05 01:37:28;;;;;;;11.65;5.18;;;;;;;;;;4984244;28;20605;-66
2023/12/05 01:39:54;;;;;;;9.52;5.80;;;;;;;;;;4984825;28;20031;-66
2023/12/05 01:42:19;;;;;;;13.20;6.72;;;;;;;;;;4980243;28;20026;-67
2023/12/05 01:44:44;;;;;;;13.93;7.07;;;;;;;;;;4986001;28;20525;-66
2023/12/05 01:47:10;;;;;;;12.13;6.80;;;;;;;;;;4989066;28;20030;-66
2023/12/05 01:49:35;;;;;;;10.57;3.63;;;;;;;;;;4984196;28;20080;-67
2023/12/05 01:52:01;;;;;;;6.25;4.45;;;;;;;;;;4986303;28;20014;-67
2023/12/05 01:54:27;;;;;;;8.90;5.10;;;;;;;;;;4988664;28;20604;-66
2023/12/05 01:56:54;;;;;;;9.55;4.32;;;;;;;;;;4989946;28;20054;-66
2023/12/05 01:59:19;;;;;;;11.90;5.50;;;;;;;;;;4991788;28;20073;-66
2023/12/05 02:01:44;;;;;;;10.27;5.20;;;;;;;;;;4987806;28;20480;-66
2023/12/05 02:04:10;;;;;;;17.88;8.90;;;;;;;;;;4989594;28;20254;-66
2023/12/05 02:06:35;;;;;;;12.13;4.38;;;;;;;;;;4987473;28;20134;-66
2023/12/05 02:09:01;;;;;;;9.25;4.57;;;;;;;;;;4991901;28;20656;-66
2023/12/05 02:11:26;;;;;;;16.15;6.80;;;;;;;;;;4987827;28;20038;-66
2023/12/05 02:13:51;;;;;;;8.10;4.25;;;;;;;;;;4989856;28;20026;-66
2023/12/05 02:16:37;;;;;;;15.88;7.57;;;;;;;;;;4989100;28;20018;-66
2023/12/05 02:19:20;;;;;;;19.38;7.82;;;;;;;;;;4984845;28;20053;-66
2023/12/05 02:21:46;;;;;;;10.00;5.15;;;;;;;;;;4976735;28;20049;-67
2023/12/05 02:24:26;;;;;;;14.88;7.28;;;;;;;;;;4983566;28;20066;-66
2023/12/05 02:27:00;;;;;;;10.40;5.85;;;;;;;;;;4974989;28;20035;-66
2023/12/05 02:29:25;;;;;;;13.55;5.45;;;;;;;;;;4985457;28;20026;-66
2023/12/05 02:31:50;;;;;;;16.63;8.27;;;;;;;;;;4987809;28;20052;-66
2023/12/05 02:34:15;;;;;;;22.92;7.57;;;;;;;;;;4984026;28;20532;-66
2023/12/05 02:37:01;;;;;;;15.45;6.90;;;;;;;;;;4976131;28;20433;-66
2023/12/05 02:39:45;;;;;;;11.95;7.55;;;;;;;;;;4987138;28;20031;-66
2023/12/05 02:42:11;;;;;;;9.88;4.47;;;;;;;;;;4981718;28;20699;-66
2023/12/05 02:44:41;;;;;;;13.15;6.68;;;;;;;;;;4986971;28;20077;-66
2023/12/05 02:47:07;;;;;;;11.20;5.97;;;;;;;;;;4988589;28;20022;-66
2023/12/05 02:49:33;;;;;;;7.22;3.80;;;;;;;;;;4976850;28;20456;-66
2023/12/05 02:51:58;;;;;;;9.90;5.22;;;;;;;;;;4984057;28;20022;-66
2023/12/05 02:54:23;;;;;;;12.60;6.30;;;;;;;;;;4978078;28;20045;-66
2023/12/05 02:56:48;;;;;;;10.88;4.20;;;;;;;;;;4984700;28;20030;-66
2023/12/05 02:59:13;;;;;;;10.02;4.93;;;;;;;;;;4983580;28;20015;-66
2023/12/05 03:01:39;;;;;;;14.10;6.50;;;;;;;;;;4981329;28;20023;-66
2023/12/05 03:04:05;;;;;;;4.47;2.58;;;;;;;;;;4989732;28;20318;-66
2023/12/05 03:06:30;;;;;;;8.27;3.30;;;;;;;;;;4978802;28;20015;-66
2023/12/05 03:08:56;;;;;;;10.70;4.47;;;;;;;;;;4980759;28;20647;-66
2023/12/05 03:11:21;;;;;;;17.08;6.63;;;;;;;;;;4985075;28;20400;-66
2023/12/05 03:13:46;;;;;;;9.07;5.33;;;;;;;;;;4987946;28;20128;-66
2023/12/05 03:16:11;;;;;;;5.73;3.57;;;;;;;;;;4988592;28;20293;-66
2023/12/05 03:18:36;;;;;;;8.23;3.55;;;;;;;;;;4987595;28;20360;-66
2023/12/05 03:21:02;;;;;;;6.63;4.45;;;;;;;;;;4977506;28;20072;-66
2023/12/05 03:23:27;;;;;;;8.23;3.92;;;;;;;;;;4982698;28;20351;-66
2023/12/05 03:25:52;;;;;;;8.98;5.03;;;;;;;;;;4987713;28;20092;-66
2023/12/05 03:28:17;;;;;;;4.28;2.65;;;;;;;;;;4989951;28;20026;-66
2023/12/05 03:30:43;;;;;;;5.13;3.30;;;;;;;;;;4986319;28;20371;-66
2023/12/05 03:33:08;;;;;;;10.77;4.83;;;;;;;;;;4987339;28;20070;-66
2023/12/05 03:35:33;;;;;;;10.45;6.13;;;;;;;;;;4986151;28;20323;-66
2023/12/05 03:37:58;;;;;;;4.82;2.38;;;;;;;;;;4983879;28;20022;-66
2023/12/05 03:40:23;;;;;;;9.87;5.30;;;;;;;;;;4987861;28;20049;-66
2023/12/05 03:42:48;;;;;;;3.83;2.97;;;;;;;;;;4987662;28;20285;-66
2023/12/05 03:45:14;;;;;;;9.98;4.13;;;;;;;;;;4986516;28;20352;-66
2023/12/05 03:47:39;;;;;;;9.25;4.88;;;;;;;;;;4987262;28;20394;-66
2023/12/05 03:50:04;;;;;;;6.63;3.87;;;;;;;;;;4984468;28;20716;-66
2023/12/05 03:52:29;;;;;;;9.82;4.53;;;;;;;;;;4983148;28;20269;-66
2023/12/05 03:54:55;;;;;;;13.90;5.57;;;;;;;;;;4987571;28;20504;-66
2023/12/05 03:57:20;;;;;;;13.30;5.70;;;;;;;;;;4989671;28;20317;-66
2023/12/05 03:59:46;;;;;;;6.07;2.78;;;;;;;;;;4986478;28;20658;-66
2023/12/05 04:02:11;;;;;;;9.38;4.88;;;;;;;;;;4986768;28;20025;-66
2023/12/05 04:04:36;;;;;;;7.13;3.45;;;;;;;;;;4969938;28;20018;-66
2023/12/05 04:07:02;;;;;;;6.25;3.42;;;;;;;;;;4989081;28;20025;-66
2023/12/05 04:09:27;;;;;;;7.40;4.30;;;;;;;;;;4986570;28;20029;-66
2023/12/05 04:11:52;;;;;;;6.70;2.63;;;;;;;;;;4986790;28;20015;-66
2023/12/05 04:14:17;;;;;;;10.02;4.78;;;;;;;;;;4987600;28;20296;-66
2023/12/05 04:16:42;;;;;;;6.40;3.60;;;;;;;;;;4980745;28;20026;-66
2023/12/05 04:19:08;;;;;;;9.90;5.07;;;;;;;;;;4984230;28;20267;-66
2023/12/05 04:21:33;;;;;;;7.50;4.22;;;;;;;;;;4988264;28;20336;-66
2023/12/05 04:23:59;;;;;;;8.63;3.23;;;;;;;;;;4987044;28;20532;-66
2023/12/05 04:26:25;;;;;;;6.75;2.90;;;;;;;;;;4986625;28;20260;-66
2023/12/05 04:28:50;;;;;;;6.78;4.10;;;;;;;;;;4984378;28;20027;-66
2023/12/05 04:31:15;;;;;;;6.90;3.25;;;;;;;;;;4985649;28;20018;-66
2023/12/05 04:33:41;;;;;;;6.60;4.75;;;;;;;;;;4978240;28;20042;-66
2023/12/05 04:36:07;;;;;;;4.50;2.85;;;;;;;;;;4987417;28;20022;-66
2023/12/05 04:38:33;;;;;;;8.77;4.95;;;;;;;;;;4986313;28;20073;-66
2023/12/05 04:40:58;;;;;;;2.70;1.58;;;;;;;;;;4985021;28;20014;-66
2023/12/05 04:43:23;;;;;;;7.10;4.68;;;;;;;;;;4975705;28;20042;-66
2023/12/05 04:45:49;;;;;;;4.75;2.55;;;;;;;;;;4983143;28;20022;-66
2023/12/05 04:48:14;;;;;;;9.07;5.10;;;;;;;;;;4980940;28;20128;-66
2023/12/05 04:50:39;;;;;;;5.93;3.83;;;;;;;;;;4983197;28;20019;-66
2023/12/05 04:53:04;;;;;;;7.20;2.97;;;;;;;;;;4985253;28;20300;-66
2023/12/05 04:55:29;;;;;;;12.13;4.63;;;;;;;;;;4982095;28;20285;-66
2023/12/05 04:57:54;;;;;;;14.50;5.65;;;;;;;;;;4991536;28;20297;-66
2023/12/05 05:00:20;;;;;;;5.27;2.97;;;;;;;;;;4976988;28;20503;-66
2023/12/05 05:02:45;;;;;;;4.78;2.72;;;;;;;;;;4986865;28;20301;-66
2023/12/05 05:05:11;;;;;;;10.73;5.23;;;;;;;;;;4981561;28;20046;-66
2023/12/05 05:07:36;;;;;;;9.60;5.05;;;;;;;;;;4981391;28;20257;-66
2023/12/05 05:10:02;;;;;;;6.50;4.07;;;;;;;;;;4987395;28;20078;-66
2023/12/05 05:12:27;;;;;;;7.55;3.95;;;;;;;;;;4986545;28;20262;-66
2023/12/05 05:14:52;;;;;;;4.83;3.17;;;;;;;;;;4986417;28;20045;-66
2023/12/05 05:17:17;;;;;;;4.70;2.43;;;;;;;;;;4981955;28;20260;-66
2023/12/05 05:19:42;;;;;;;10.95;5.13;;;;;;;;;;4978651;28;20300;-66
2023/12/05 05:22:07;;;;;;;6.03;2.53;;;;;;;;;;4983533;28;20026;-66
2023/12/05 05:24:33;;;;;;;7.00;3.97;;;;;;;;;;4990974;28;20116;-66
2023/12/05 05:26:58;;;;;;;7.03;3.58;;;;;;;;;;4989185;28;20262;-66
2023/12/05 05:29:23;;;;;;;17.67;4.55;;;;;;;;;;4987026;28;20031;-66
2023/12/05 05:31:48;;;;;;;4.88;2.25;;;;;;;;;;4988883;28;20034;-66
2023/12/05 05:34:13;;;;;;;5.73;3.17;;;;;;;;;;4989973;28;20018;-66
2023/12/05 05:36:39;;;;;;;3.63;2.03;;;;;;;;;;4990119;28;20281;-66
2023/12/05 05:39:04;;;;;;;5.57;2.83;;;;;;;;;;4991007;28;20097;-66
2023/12/05 05:41:29;;;;;;;4.55;2.70;;;;;;;;;;4989676;28;20669;-66
2023/12/05 05:43:55;;;;;;;7.20;4.87;;;;;;;;;;4990113;28;20029;-66
2023/12/05 05:46:20;;;;;;;14.17;3.80;;;;;;;;;;4990680;28;20904;-66
2023/12/05 05:48:45;;;;;;;8.53;2.40;;;;;;;;;;4990484;28;20284;-66
2023/12/05 05:51:10;;;;;;;7.07;3.83;;;;;;;;;;4991661;28;20695;-66
2023/12/05 05:53:35;;;;;;;6.53;3.17;;;;;;;;;;4989645;28;20309;-66
2023/12/05 05:56:01;;;;;;;3.80;2.67;;;;;;;;;;4991013;28;20018;-66
2023/12/05 05:58:26;;;;;;;5.88;3.20;;;;;;;;;;4986044;28;20022;-66
2023/12/05 06:00:51;;;;;;;8.00;3.40;;;;;;;;;;4983865;28;20110;-68
2023/12/05 06:03:17;;;;;;;4.97;3.57;;;;;;;;;;4984178;28;20033;-67
2023/12/05 06:05:42;;;;;;;6.30;3.25;;;;;;;;;;4990001;28;20261;-67
2023/12/05 06:08:07;;;;;;;7.93;3.67;;;;;;;;;;4990683;28;20031;-67
2023/12/05 06:10:32;;;;;;;6.15;3.58;;;;;;;;;;4989722;28;20285;-67
2023/12/05 06:12:57;;;;;;;15.63;5.35;;;;;;;;;;4985910;28;20029;-67
2023/12/05 06:15:22;;;;;;;6.30;3.17;;;;;;;;;;4983826;28;20027;-67
2023/12/05 06:17:48;;;;;;;7.97;4.27;;;;;;;;;;4989326;28;20513;-67
2023/12/05 06:20:13;;;;;;;4.87;2.87;;;;;;;;;;4981435;28;20265;-67
2023/12/05 06:22:38;;;;;;;9.13;4.25;;;;;;;;;;4989033;28;20607;-67
2023/12/05 06:25:04;;;;;;;3.65;2.00;;;;;;;;;;4990697;28;20026;-67
2023/12/05 06:27:29;;;;;;;10.77;3.05;;;;;;;;;;4985786;28;20027;-67
2023/12/05 06:29:54;;;;;;;8.10;3.78;;;;;;;;;;4986619;28;20033;-67
2023/12/05 06:32:19;;;;;;;6.43;4.35;;;;;;;;;;4982212;28;20026;-67
2023/12/05 06:34:44;;;;;;;5.93;3.03;;;;;;;;;;4984891;28;20062;-67
2023/12/05 06:37:10;;;;;;;5.90;2.83;;;;;;;;;;4982500;28;20041;-67
2023/12/05 06:39:35;;;;;;;5.82;2.90;;;;;;;;;;4986907;28;20296;-67
2023/12/05 06:42:00;;;;;;;5.75;3.22;;;;;;;;;;4986111;28;20080;-67
2023/12/05 06:44:25;;;;;;;5.28;2.85;;;;;;;;;;4984460;28;20085;-67
2023/12/05 06:46:50;;;;;;;4.00;2.17;;;;;;;;;;4989215;28;20064;-67
2023/12/05 06:49:16;;;;;;;3.58;2.40;;;;;;;;;;4984948;28;20760;-67
2023/12/05 06:51:41;;;;;;;8.07;4.00;;;;;;;;;;4985588;28;20473;-67
2023/12/05 06:54:06;;;;;;;4.40;3.00;;;;;;;;;;4990651;28;20022;-67
2023/12/05 06:56:31;;;;;;;1.67;1.40;;;;;;;;;;4985798;28;20289;-67
2023/12/05 06:58:58;;;;;;;5.25;2.70;;;;;;;;;;4990482;28;20257;-67
2023/12/05 07:01:23;;;;;;;5.40;2.65;;;;;;;;;;4980976;28;20073;-67
2023/12/05 07:03:48;;;;;;;9.23;2.70;;;;;;;;;;4983113;28;20027;-67
2023/12/05 07:06:13;;;;;;;9.77;2.47;;;;;;;;;;4989964;28;20265;-67
2023/12/05 07:08:39;;;;;;;3.87;1.80;;;;;;;;;;4986950;28;20030;-67
2023/12/05 07:11:04;;;;;;;5.18;1.90;;;;;;;;;;4983960;28;20313;-67
2023/12/05 07:13:30;;;;;;;3.45;1.90;;;;;;;;;;4986887;28;20085;-68
2023/12/05 07:15:56;;;;;;;2.33;1.43;;;;;;;;;;4986090;28;20022;-67
2023/12/05 07:18:21;;;;;;;4.78;1.08;;;;;;;;;;4985018;28;20665;-67
2023/12/05 07:20:46;;;;;;;1.35;1.15;;;;;;;;;;4988654;28;20023;-67
2023/12/05 07:23:12;;;;;;;2.60;1.60;;;;;;;;;;4984609;28;20022;-67
2023/12/05 07:25:37;;;;;;;2.00;1.17;;;;;;;;;;4989920;28;20261;-67
2023/12/05 07:28:02;;;;;;;3.23;1.57;;;;;;;;;;4993995;28;20276;-67
2023/12/05 07:30:27;;;;;;;3.60;1.30;;;;;;;;;;4982669;28;20277;-67
2023/12/05 07:32:52;;;;;;;2.67;1.23;;;;;;;;;;4983725;28;20389;-67
2023/12/05 07:35:18;;;;;;;2.60;1.40;;;;;;;;;;4987614;28;20034;-67
2023/12/05 07:37:43;;;;;;;2.83;1.07;;;;;;;;;;4984489;28;20094;-67
2023/12/05 07:40:08;;;;;;;5.23;1.83;;;;;;;;;;4985733;28;20840;-67
2023/12/05 07:42:34;;;;;;;1.52;1.10;;;;;;;;;;4983916;28;20265;-67
2023/12/05 07:44:59;;;;;;;1.80;0.93;;;;;;;;;;4989745;28;20552;-67
2023/12/05 07:47:24;;;;;;;2.35;1.42;;;;;;;;;;4985673;28;20033;-67
2023/12/05 07:49:49;;;;;;;1.40;1.08;;;;;;;;;;4985226;28;20029;-67
2023/12/05 07:52:15;;;;;;;1.38;0.93;;;;;;;;;;4985709;28;20432;-67
2023/12/05 07:54:40;;;;;;;1.00;0.77;;;;;;;;;;4986058;28;20477;-67
2023/12/05 07:57:05;;;;;;;2.57;1.30;;;;;;;;;;4988004;28;20481;-67
2023/12/05 07:59:30;;;;;;;3.23;1.57;;;;;;;;;;4988118;28;20265;-67
2023/12/05 08:01:55;;;;;;;0.93;0.60;;;;;;;;;;4981400;28;20283;-67
2023/12/05 08:04:21;;;;;;;2.27;1.33;;;;;;;;;;4987074;28;20033;-67
2023/12/05 08:06:47;;;;;;;3.88;1.45;;;;;;;;;;4989899;28;21012;-67
2023/12/05 08:09:12;;;;;;;1.15;0.88;;;;;;;;;;4985162;28;20062;-67
2023/12/05 08:11:38;;;;;;;3.30;1.60;;;;;;;;;;4988123;28;20066;-67
2023/12/05 08:14:03;;;;;;;1.33;0.73;;;;;;;;;;4983648;28;20249;-67
2023/12/05 08:16:29;;;;;;;1.27;0.80;;;;;;;;;;4983636;28;20378;-67
2023/12/05 08:18:54;;;;;;;2.33;1.05;;;;;;;;;;4987994;28;20265;-67
2023/12/05 08:21:19;;;;;;;0.73;0.43;;;;;;;;;;4983456;28;20038;-67
2023/12/05 08:23:44;;;;;;;0.70;0.45;;;;;;;;;;4983281;28;20352;-67
2023/12/05 08:26:09;;;;;;;8.38;3.00;;;;;;;;;;4986886;28;20022;-67
2023/12/05 08:28:36;;;;;;;1.60;0.90;;;;;;;;;;4988589;28;20029;-67
2023/12/05 08:31:01;;;;;;;2.50;0.95;;;;;;;;;;4989530;28;20634;-67
2023/12/05 08:33:26;;;;;;;1.20;0.77;;;;;;;;;;4983535;28;20058;-67
2023/12/05 08:35:51;;;;;;;1.67;0.90;;;;;;;;;;4986581;28;20117;-66
2023/12/05 08:38:17;;;;;;;1.83;0.93;;;;;;;;;;4985792;28;20255;-67
2023/12/05 08:40:42;;;;;;;0.77;0.73;;;;;;;;;;4983037;28;20015;-67
2023/12/05 08:43:07;;;;;;;1.75;1.38;;;;;;;;;;4989695;28;20344;-67
2023/12/05 08:45:32;;;;;;;1.50;0.50;;;;;;;;;;4983642;28;20026;-67
2023/12/05 08:47:58;;;;;;;4.70;2.00;;;;;;;;;;4987174;28;20312;-67
2023/12/05 08:50:23;;;;;;;1.57;1.00;;;;;;;;;;4982396;28;21025;-67
2023/12/05 08:52:48;;;;;;;1.85;1.08;;;;;;;;;;4983162;28;20325;-67
2023/12/05 08:55:14;;;;;;;0.40;0.38;;;;;;;;;;4992101;28;20034;-67
2023/12/05 08:57:39;;;;;;;1.75;0.80;;;;;;;;;;4987869;28;20073;-67
2023/12/05 09:00:05;;;;;;;1.90;1.17;;;;;;;;;;4983685;28;20033;-67
2023/12/05 09:02:30;;;;;;;1.42;0.73;;;;;;;;;;4986443;28;20011;-67
2023/12/05 09:04:56;;;;;;;1.83;0.88;;;;;;;;;;4990197;28;20023;-67
2023/12/05 09:07:21;;;;;;;1.95;0.73;;;;;;;;;;4993745;28;20034;-67
2023/12/05 09:09:46;;;;;;;2.70;1.05;;;;;;;;;;4994766;28;20069;-67
2023/12/05 09:12:11;;;;;;;0.95;0.50;;;;;;;;;;4988441;28;20026;-67
2023/12/05 09:14:37;;;;;;;2.35;1.05;;;;;;;;;;4988284;28;20014;-67
2023/12/05 09:17:03;;;;;;;4.18;1.15;;;;;;;;;;4992373;28;20030;-67
2023/12/05 09:19:28;;;;;;;1.95;0.70;;;;;;;;;;4989003;28;20025;-67
2023/12/05 09:21:53;;;;;;;7.97;0.82;;;;;;;;;;4994544;28;20026;-67
2023/12/05 09:24:18;;;;;;;0.77;0.37;;;;;;;;;;4995752;28;20102;-67
2023/12/05 09:26:44;;;;;;;1.02;0.55;;;;;;;;;;4975911;28;20641;-67
2023/12/05 09:29:09;;;;;;;1.53;0.70;;;;;;;;;;4995864;28;20031;-67
2023/12/05 09:31:34;;;;;;;0.87;0.30;;;;;;;;;;4994329;28;20310;-67
2023/12/05 09:33:59;;;;;;;1.27;0.95;;;;;;;;;;4993332;28;20771;-67
2023/12/05 09:36:24;;;;;;;1.13;0.50;;;;;;;;;;4995870;28;20027;-67
2023/12/05 09:38:50;;;;;;;0.47;0.32;;;;;;;;;;4995905;28;20034;-67
2023/12/05 09:41:15;;;;;;;1.27;0.70;;;;;;;;;;4993337;28;20760;-67
2023/12/05 09:43:41;;;;;;;2.63;0.95;;;;;;;;;;4991159;28;20309;-67
2023/12/05 09:46:09;;;;;;;1.83;0.60;;;;;;;;;;4994074;28;20019;-67
2023/12/05 09:48:40;;;;;;;0.30;0.30;;;;;;;;;;4994287;28;20026;-67
2023/12/05 09:51:05;;;;;;;0.50;0.30;;;;;;;;;;4992061;28;20113;-67
2023/12/05 09:53:31;;;;;;;0.60;0.40;;;;;;;;;;4990498;28;20046;-68
2023/12/05 09:55:57;;;;;;;1.90;0.30;;;;;;;;;;4989738;28;20102;-67
2023/12/05 09:58:23;;;;;;;5.22;0.50;;;;;;;;;;4976571;28;20802;-67
2023/12/05 10:00:49;;;;;;;4.03;0.70;;;;;;;;;;4989994;28;20077;-67
2023/12/05 10:03:15;;;;;;;4.07;0.65;;;;;;;;;;4991467;28;20113;-67
2023/12/05 10:05:42;;;;;;;1.85;0.80;;;;;;;;;;4997344;28;20065;-67
2023/12/05 10:08:08;;;;;;;3.20;0.80;;;;;;;;;;4995496;28;20557;-67
2023/12/05 10:10:34;;;;;;;0.68;0.68;;;;;;;;;;4992848;28;20109;-67
2023/12/05 10:13:00;;;;;;;1.50;0.77;;;;;;;;;;4989114;28;20520;-67
2023/12/05 10:15:25;;;;;;;2.40;0.90;;;;;;;;;;4989029;28;21350;-67
2023/12/05 10:17:50;;;;;;;1.45;0.75;;;;;;;;;;4986474;28;20083;-67
2023/12/05 10:20:16;;;;;;;1.75;0.88;;;;;;;;;;4969484;28;20026;-67
2023/12/05 10:22:41;;;;;;;1.35;1.13;;;;;;;;;;4986763;28;20026;-67
2023/12/05 10:25:07;;;;;;;1.27;0.87;;;;;;;;;;4980891;28;20485;-67
2023/12/05 10:27:32;;;;;;;0.68;0.55;;;;;;;;;;4989950;28;20265;-69
2023/12/05 10:29:57;;;;;;;6.17;0.77;;;;;;;;;;4976233;28;20034;-68
2023/12/05 10:32:26;;;;;;;0.93;0.50;;;;;;;;;;4985654;28;20273;-67
2023/12/05 10:34:52;;;;;;;0.47;0.45;;;;;;;;;;4985590;28;20595;-68
2023/12/05 10:37:21;;;;;;;1.45;0.73;;;;;;;;;;4984926;28;20019;-67
2023/12/05 10:39:48;;;;;;;0.75;0.55;;;;;;;;;;4987756;28;20070;-68
2023/12/05 10:42:13;;;;;;;1.60;0.68;;;;;;;;;;4978655;28;20492;-67
2023/12/05 10:44:39;;;;;;;1.02;0.50;;;;;;;;;;4980539;28;20105;-67
2023/12/05 10:47:05;;;;;;;2.17;0.77;;;;;;;;;;4983570;28;20532;-67
2023/12/05 10:49:31;;;;;;;0.85;0.40;;;;;;;;;;4984081;28;20022;-67
2023/12/05 10:51:57;;;;;;;0.75;0.57;;;;;;;;;;4985557;28;20473;-67
2023/12/05 10:54:22;;;;;;;2.75;1.25;;;;;;;;;;4983386;28;20495;-67
2023/12/05 10:56:57;;;;;;;0.52;0.35;;;;;;;;;;4980971;28;20033;-67
2023/12/05 10:59:24;;;;;;;2.63;0.95;;;;;;;;;;4983291;28;20102;-67
2023/12/05 11:01:50;;;;;;;4.13;1.10;;;;;;;;;;4989196;28;20018;-67
2023/12/05 11:04:16;;;;;;;3.37;0.77;;;;;;;;;;4979020;28;20034;-67
2023/12/05 11:06:41;;;;;;;1.15;0.70;;;;;;;;;;4982999;28;20660;-67
2023/12/05 11:09:07;;;;;;;0.88;0.55;;;;;;;;;;4978306;28;20030;-67
2023/12/05 11:11:33;;;;;;;4.57;1.00;;;;;;;;;;4985785;28;20026;-67
2023/12/05 11:13:58;;;;;;;5.18;1.08;;;;;;;;;;4980947;28;20081;-67
2023/12/05 11:16:27;;;;;;;1.70;0.82;;;;;;;;;;4982566;28;20034;-67
2023/12/05 11:19:00;;;;;;;2.53;0.60;;;;;;;;;;4983177;28;20022;-67
2023/12/05 11:21:46;;;;;;;1.55;0.63;;;;;;;;;;4976821;28;20026;-67
2023/12/05 11:24:14;;;;;;;0.52;0.38;;;;;;;;;;4984453;28;20030;-67
2023/12/05 11:26:49;;;;;;;1.52;0.63;;;;;;;;;;4975961;28;20053;-67
2023/12/05 11:29:29;;;;;;;6.00;0.60;;;;;;;;;;4986603;28;20030;-67
2023/12/05 11:32:00;;;;;;;3.72;0.95;;;;;;;;;;4979230;28;20089;-67
2023/12/05 11:34:40;;;;;;;6.45;0.73;;;;;;;;;;4974655;28;20026;-67
2023/12/05 11:37:13;;;;;;;0.35;0.32;;;;;;;;;;4974542;28;20426;-67
2023/12/05 11:39:38;;;;;;;3.25;0.50;;;;;;;;;;4977433;28;20133;-67
2023/12/05 11:42:10;;;;;;;0.50;0.40;;;;;;;;;;4975100;28;20674;-67
2023/12/05 11:44:39;;;;;;;0.82;0.55;;;;;;;;;;4981380;28;20022;-67
2023/12/05 11:47:14;;;;;;;2.38;0.90;;;;;;;;;;4985879;28;20058;-67
2023/12/05 11:49:45;;;;;;;0.85;0.38;;;;;;;;;;4974569;28;20494;-67
2023/12/05 11:52:11;;;;;;;1.88;0.77;;;;;;;;;;4980163;28;20045;-67
2023/12/05 11:54:36;;;;;;;2.15;0.77;;;;;;;;;;4989593;28;20101;-67
2023/12/05 11:57:18;;;;;;;1.55;0.47;;;;;;;;;;4976919;28;20593;-67
2023/12/05 11:59:45;;;;;;;2.67;0.95;;;;;;;;;;4980731;28;20026;-67
2023/12/05 12:02:16;;;;;;;0.93;0.85;;;;;;;;;;4989539;28;20026;-68
2023/12/05 12:04:41;;;;;;;3.53;0.50;;;;;;;;;;4974208;28;20022;-67
2023/12/05 12:07:07;;;;;;;3.42;0.60;;;;;;;;;;4988397;28;20026;-67
2023/12/05 12:09:36;;;;;;;4.65;0.75;;;;;;;;;;4989292;28;20045;-67
2023/12/05 12:12:02;;;;;;;2.05;0.60;;;;;;;;;;4988047;28;20389;-67
2023/12/05 12:14:27;;;;;;;3.03;0.52;;;;;;;;;;4975353;28;20082;-67
2023/12/05 12:16:53;;;;;;;0.67;0.50;;;;;;;;;;4970035;28;20026;-67
2023/12/05 12:19:18;;;;;;;2.78;1.25;;;;;;;;;;4971478;28;20269;-67
2023/12/05 12:21:44;;;;;;;1.48;1.05;;;;;;;;;;4987928;28;20030;-67
2023/12/05 12:24:19;;;;;;;1.05;0.47;;;;;;;;;;4976338;28;20018;-67
2023/12/05 12:26:54;;;;;;;1.83;0.60;;;;;;;;;;4976108;28;20066;-67
2023/12/05 12:29:21;;;;;;;2.00;0.95;;;;;;;;;;4990681;28;20029;-67
2023/12/05 12:31:46;;;;;;;2.50;1.10;;;;;;;;;;4975552;28;20026;-67
2023/12/05 12:34:21;;;;;;;4.72;1.10;;;;;;;;;;4988832;28;20407;-67
2023/12/05 12:36:48;;;;;;;3.30;0.40;;;;;;;;;;4988712;28;20030;-68
2023/12/05 12:39:15;;;;;;;0.30;0.28;;;;;;;;;;4990169;28;20110;-67
2023/12/05 12:41:41;;;;;;;1.45;0.70;;;;;;;;;;4987553;28;20030;-67
2023/12/05 12:44:08;;;;;;;1.20;0.52;;;;;;;;;;4973149;28;20030;-67
2023/12/05 12:46:33;;;;;;;0.95;0.70;;;;;;;;;;4979016;28;20026;-67
2023/12/05 12:49:01;;;;;;;6.63;0.83;;;;;;;;;;4983554;28;20038;-67
2023/12/05 12:51:27;;;;;;;3.00;0.88;;;;;;;;;;4988494;28;20262;-67
2023/12/05 12:53:52;;;;;;;2.25;0.80;;;;;;;;;;4979390;28;20505;-67
2023/12/05 12:56:17;;;;;;;4.30;1.98;;;;;;;;;;4977284;28;20022;-67
2023/12/05 12:58:44;;;;;;;2.57;1.27;;;;;;;;;;4974170;28;20635;-67
2023/12/05 13:01:11;;;;;;;1.17;0.63;;;;;;;;;;4979335;28;20329;-67
2023/12/05 13:03:37;;;;;;;4.45;0.30;;;;;;;;;;4988375;28;20101;-67
2023/12/05 13:06:02;;;;;;;0.55;0.55;;;;;;;;;;4971866;28;20150;-67
2023/12/05 13:08:27;;;;;;;1.60;0.95;;;;;;;;;;4977229;28;20077;-67
2023/12/05 13:10:52;;;;;;;1.50;0.40;;;;;;;;;;4987796;28;20030;-67
2023/12/05 13:13:17;;;;;;;1.67;0.55;;;;;;;;;;4976832;28;20137;-67
2023/12/05 13:15:43;;;;;;;1.50;0.50;;;;;;;;;;4984966;28;20033;-67
2023/12/05 13:18:10;;;;;;;1.30;0.60;;;;;;;;;;4985144;28;20414;-67
2023/12/05 13:20:55;;;;;;;1.63;0.70;;;;;;;;;;4978063;28;20042;-67
2023/12/05 13:23:20;;;;;;;1.88;0.60;;;;;;;;;;4976973;28;20014;-67
2023/12/05 13:25:45;;;;;;;3.15;0.70;;;;;;;;;;4973347;28;20046;-67
2023/12/05 13:28:11;;;;;;;0.73;0.50;;;;;;;;;;4971500;28;20105;-67
2023/12/05 13:30:36;;;;;;;1.50;0.80;;;;;;;;;;4971986;28;20719;-67
2023/12/05 13:33:01;;;;;;;0.77;0.40;;;;;;;;;;4970329;28;20045;-67
2023/12/05 13:35:26;;;;;;;1.07;0.37;;;;;;;;;;4975015;28;20085;-67
2023/12/05 13:37:52;;;;;;;2.05;0.93;;;;;;;;;;4981385;28;20345;-67
2023/12/05 13:40:17;;;;;;;3.65;1.10;;;;;;;;;;4989216;28;20022;-67
2023/12/05 13:42:42;;;;;;;0.52;0.30;;;;;;;;;;4988886;28;20030;-67
2023/12/05 13:45:08;;;;;;;3.67;0.30;;;;;;;;;;4988566;28;20018;-67
2023/12/05 13:47:33;;;;;;;1.23;1.02;;;;;;;;;;4985712;28;20857;-67
2023/12/05 13:49:58;;;;;;;3.03;0.95;;;;;;;;;;4983599;28;20022;-67
2023/12/05 13:52:24;;;;;;;0.97;0.40;;;;;;;;;;4985728;28;20064;-67
2023/12/05 13:54:49;;;;;;;3.50;0.52;;;;;;;;;;4986882;28;20959;-67
2023/12/05 13:57:15;;;;;;;1.77;1.00;;;;;;;;;;4984891;28;20097;-67
2023/12/05 13:59:40;;;;;;;1.55;0.55;;;;;;;;;;4981869;28;20022;-67
2023/12/05 14:02:06;;;;;;;5.37;0.83;;;;;;;;;;4992363;28;20022;-67
2023/12/05 14:04:33;;;;;;;0.85;0.43;;;;;;;;;;4992975;28;20337;-67
2023/12/05 14:06:58;;;;;;;1.90;0.90;;;;;;;;;;4981398;28;20030;-67
2023/12/05 14:09:23;;;;;;;2.03;1.00;;;;;;;;;;4982954;28;20053;-67
2023/12/05 14:11:49;;;;;;;3.83;1.20;;;;;;;;;;4990463;28;20022;-67
2023/12/05 14:14:14;;;;;;;3.42;1.15;;;;;;;;;;4992678;28;20026;-67
2023/12/05 14:16:39;;;;;;;2.80;1.30;;;;;;;;;;4985785;28;20084;-67
2023/12/05 14:19:04;;;;;;;1.40;0.80;;;;;;;;;;4986091;28;20030;-67
2023/12/05 14:21:30;;;;;;;3.30;1.10;;;;;;;;;;4984891;28;20026;-67
2023/12/05 14:23:55;;;;;;;3.30;1.50;;;;;;;;;;4982197;28;20277;-67
2023/12/05 14:26:20;;;;;;;6.10;1.38;;;;;;;;;;4979849;28;20355;-67
2023/12/05 14:28:46;;;;;;;2.83;1.20;;;;;;;;;;4978721;28;20041;-67
2023/12/05 14:31:11;;;;;;;3.78;1.58;;;;;;;;;;4986067;28;20226;-67
2023/12/05 14:33:36;;;;;;;0.90;0.57;;;;;;;;;;4988982;28;20018;-67